sensor_id;sensor_type;location;lat;lon;timestamp;P1;durP1;ratioP1;P2;durP2;ratioP2
66874;SDS011;53784;52.630;4.896;2023-02-18T00:00:15;12.93;;;2.55;;
66874;SDS011;53784;52.630;4.896;2023-02-18T00:02:42;12.25;;;2.80;;
66874;SDS011;53784;52.630;4.896;2023-02-18T00:05:07;12.57;;;2.63;;
66874;SDS011;53784;52.630;4.896;2023-02-18T00:07:33;16.13;;;2.97;;
66874;SDS011;53784;52.630;4.896;2023-02-18T00:09:59;10.77;;;2.47;;
66874;SDS011;53784;52.630;4.896;2023-02-18T00:12:24;12.30;;;2.73;;
66874;SDS011;53784;52.630;4.896;2023-02-18T00:14:49;11.33;;;2.73;;
66874;SDS011;53784;52.630;4.896;2023-02-18T00:17:14;12.77;;;2.70;;
66874;SDS011;53784;52.630;4.896;2023-02-18T00:19:39;12.77;;;2.50;;
66874;SDS011;53784;52.630;4.896;2023-02-18T00:22:05;18.67;;;2.95;;
66874;SDS011;53784;52.630;4.896;2023-02-18T00:24:30;13.40;;;2.87;;
66874;SDS011;53784;52.630;4.896;2023-02-18T00:26:55;9.27;;;2.50;;
66874;SDS011;53784;52.630;4.896;2023-02-18T00:29:20;11.40;;;2.30;;
66874;SDS011;53784;52.630;4.896;2023-02-18T00:31:45;12.75;;;2.80;;
66874;SDS011;53784;52.630;4.896;2023-02-18T00:34:11;10.50;;;2.30;;
66874;SDS011;53784;52.630;4.896;2023-02-18T00:36:36;10.73;;;2.67;;
66874;SDS011;53784;52.630;4.896;2023-02-18T00:39:04;15.23;;;2.87;;
66874;SDS011;53784;52.630;4.896;2023-02-18T00:41:30;12.95;;;2.80;;
66874;SDS011;53784;52.630;4.896;2023-02-18T00:43:56;13.43;;;3.25;;
66874;SDS011;53784;52.630;4.896;2023-02-18T00:46:21;13.63;;;3.10;;
66874;SDS011;53784;52.630;4.896;2023-02-18T00:48:46;11.52;;;3.10;;
66874;SDS011;53784;52.630;4.896;2023-02-18T00:51:11;13.75;;;3.28;;
66874;SDS011;53784;52.630;4.896;2023-02-18T00:53:37;16.07;;;3.37;;
66874;SDS011;53784;52.630;4.896;2023-02-18T00:56:02;13.57;;;3.17;;
66874;SDS011;53784;52.630;4.896;2023-02-18T00:58:28;18.33;;;3.58;;
66874;SDS011;53784;52.630;4.896;2023-02-18T01:00:53;15.23;;;3.60;;
66874;SDS011;53784;52.630;4.896;2023-02-18T01:03:19;18.63;;;3.97;;
66874;SDS011;53784;52.630;4.896;2023-02-18T01:05:44;16.63;;;3.80;;
66874;SDS011;53784;52.630;4.896;2023-02-18T01:08:10;15.05;;;3.72;;
66874;SDS011;53784;52.630;4.896;2023-02-18T01:10:36;15.68;;;3.90;;
66874;SDS011;53784;52.630;4.896;2023-02-18T01:13:01;16.23;;;3.67;;
66874;SDS011;53784;52.630;4.896;2023-02-18T01:15:28;15.85;;;4.00;;
66874;SDS011;53784;52.630;4.896;2023-02-18T01:17:53;19.00;;;4.15;;
66874;SDS011;53784;52.630;4.896;2023-02-18T01:20:19;17.13;;;4.17;;
66874;SDS011;53784;52.630;4.896;2023-02-18T01:22:44;20.25;;;4.68;;
66874;SDS011;53784;52.630;4.896;2023-02-18T01:25:09;15.60;;;4.40;;
66874;SDS011;53784;52.630;4.896;2023-02-18T01:27:35;17.80;;;4.25;;
66874;SDS011;53784;52.630;4.896;2023-02-18T01:30:01;17.30;;;4.53;;
66874;SDS011;53784;52.630;4.896;2023-02-18T01:32:26;17.52;;;4.88;;
66874;SDS011;53784;52.630;4.896;2023-02-18T01:34:51;14.75;;;4.20;;
66874;SDS011;53784;52.630;4.896;2023-02-18T01:37:16;18.27;;;4.57;;
66874;SDS011;53784;52.630;4.896;2023-02-18T01:39:42;20.13;;;5.27;;
66874;SDS011;53784;52.630;4.896;2023-02-18T01:42:14;23.93;;;5.43;;
66874;SDS011;53784;52.630;4.896;2023-02-18T01:44:42;22.35;;;6.32;;
66874;SDS011;53784;52.630;4.896;2023-02-18T01:47:07;30.27;;;6.63;;
66874;SDS011;53784;52.630;4.896;2023-02-18T01:49:33;23.35;;;5.93;;
66874;SDS011;53784;52.630;4.896;2023-02-18T01:52:04;22.10;;;6.28;;
66874;SDS011;53784;52.630;4.896;2023-02-18T01:54:31;25.42;;;6.78;;
66874;SDS011;53784;52.630;4.896;2023-02-18T01:59:25;28.75;;;7.65;;
66874;SDS011;53784;52.630;4.896;2023-02-18T02:01:51;29.90;;;8.48;;
66874;SDS011;53784;52.630;4.896;2023-02-18T02:04:17;27.58;;;7.88;;
66874;SDS011;53784;52.630;4.896;2023-02-18T02:06:43;26.17;;;8.00;;
66874;SDS011;53784;52.630;4.896;2023-02-18T02:09:10;30.27;;;8.60;;
66874;SDS011;53784;52.630;4.896;2023-02-18T02:11:42;28.52;;;8.52;;
66874;SDS011;53784;52.630;4.896;2023-02-18T02:16:38;34.67;;;9.23;;
66874;SDS011;53784;52.630;4.896;2023-02-18T02:27:09;38.90;;;9.57;;
66874;SDS011;53784;52.630;4.896;2023-02-18T02:30:00;36.83;;;9.80;;
66874;SDS011;53784;52.630;4.896;2023-02-18T02:35:08;41.17;;;11.60;;
66874;SDS011;53784;52.630;4.896;2023-02-18T02:40:24;46.55;;;13.00;;
66874;SDS011;53784;52.630;4.896;2023-02-18T02:43:05;41.83;;;13.20;;
66874;SDS011;53784;52.630;4.896;2023-02-18T02:45:54;45.33;;;15.00;;
66874;SDS011;53784;52.630;4.896;2023-02-18T02:53:45;46.58;;;15.23;;
66874;SDS011;53784;52.630;4.896;2023-02-18T02:56:12;42.50;;;14.27;;
66874;SDS011;53784;52.630;4.896;2023-02-18T02:58:37;42.85;;;14.52;;
66874;SDS011;53784;52.630;4.896;2023-02-18T03:01:18;48.90;;;15.60;;
66874;SDS011;53784;52.630;4.896;2023-02-18T03:09:05;47.55;;;17.25;;
66874;SDS011;53784;52.630;4.896;2023-02-18T03:11:34;42.40;;;15.68;;
66874;SDS011;53784;52.630;4.896;2023-02-18T03:16:50;42.47;;;13.95;;
66874;SDS011;53784;52.630;4.896;2023-02-18T03:24:17;41.92;;;13.32;;
66874;SDS011;53784;52.630;4.896;2023-02-18T03:26:45;39.75;;;14.45;;
66874;SDS011;53784;52.630;4.896;2023-02-18T03:29:10;36.38;;;14.68;;
66874;SDS011;53784;52.630;4.896;2023-02-18T03:31:38;37.30;;;14.10;;
66874;SDS011;53784;52.630;4.896;2023-02-18T03:34:06;37.38;;;13.80;;
66874;SDS011;53784;52.630;4.896;2023-02-18T03:36:33;44.47;;;14.55;;
66874;SDS011;53784;52.630;4.896;2023-02-18T03:39:02;30.92;;;12.77;;
66874;SDS011;53784;52.630;4.896;2023-02-18T03:41:28;34.28;;;13.15;;
66874;SDS011;53784;52.630;4.896;2023-02-18T03:43:57;32.75;;;13.00;;
66874;SDS011;53784;52.630;4.896;2023-02-18T03:46:24;33.65;;;13.30;;
66874;SDS011;53784;52.630;4.896;2023-02-18T03:48:49;31.58;;;12.85;;
66874;SDS011;53784;52.630;4.896;2023-02-18T03:51:15;36.22;;;13.40;;
66874;SDS011;53784;52.630;4.896;2023-02-18T03:53:40;30.67;;;12.18;;
66874;SDS011;53784;52.630;4.896;2023-02-18T03:56:05;32.57;;;12.67;;
66874;SDS011;53784;52.630;4.896;2023-02-18T03:58:31;33.92;;;12.18;;
66874;SDS011;53784;52.630;4.896;2023-02-18T04:00:56;37.00;;;13.43;;
66874;SDS011;53784;52.630;4.896;2023-02-18T04:03:21;36.43;;;13.07;;
66874;SDS011;53784;52.630;4.896;2023-02-18T04:05:46;36.93;;;12.73;;
66874;SDS011;53784;52.630;4.896;2023-02-18T04:08:12;33.13;;;12.23;;
66874;SDS011;53784;52.630;4.896;2023-02-18T04:10:37;25.85;;;10.38;;
66874;SDS011;53784;52.630;4.896;2023-02-18T04:13:02;24.17;;;10.13;;
66874;SDS011;53784;52.630;4.896;2023-02-18T04:15:27;25.85;;;10.18;;
66874;SDS011;53784;52.630;4.896;2023-02-18T04:17:53;21.02;;;9.15;;
66874;SDS011;53784;52.630;4.896;2023-02-18T04:20:18;20.87;;;8.87;;
66874;SDS011;53784;52.630;4.896;2023-02-18T04:22:43;18.80;;;8.07;;
66874;SDS011;53784;52.630;4.896;2023-02-18T04:25:08;15.23;;;6.13;;
66874;SDS011;53784;52.630;4.896;2023-02-18T04:27:34;15.05;;;6.43;;
66874;SDS011;53784;52.630;4.896;2023-02-18T04:29:59;13.43;;;6.00;;
66874;SDS011;53784;52.630;4.896;2023-02-18T04:32:24;13.80;;;6.27;;
66874;SDS011;53784;52.630;4.896;2023-02-18T04:34:49;13.07;;;6.67;;
66874;SDS011;53784;52.630;4.896;2023-02-18T04:37:14;15.52;;;7.45;;
66874;SDS011;53784;52.630;4.896;2023-02-18T04:39:39;20.93;;;8.27;;
66874;SDS011;53784;52.630;4.896;2023-02-18T04:42:04;22.00;;;8.97;;
66874;SDS011;53784;52.630;4.896;2023-02-18T04:44:33;25.38;;;9.00;;
66874;SDS011;53784;52.630;4.896;2023-02-18T04:46:58;27.15;;;9.18;;
66874;SDS011;53784;52.630;4.896;2023-02-18T04:49:23;23.00;;;8.40;;
66874;SDS011;53784;52.630;4.896;2023-02-18T04:51:48;23.53;;;9.17;;
66874;SDS011;53784;52.630;4.896;2023-02-18T04:54:14;19.73;;;7.63;;
66874;SDS011;53784;52.630;4.896;2023-02-18T04:56:39;22.57;;;7.87;;
66874;SDS011;53784;52.630;4.896;2023-02-18T04:59:04;20.20;;;7.38;;
66874;SDS011;53784;52.630;4.896;2023-02-18T05:01:29;22.27;;;8.03;;
66874;SDS011;53784;52.630;4.896;2023-02-18T05:03:54;27.07;;;9.63;;
66874;SDS011;53784;52.630;4.896;2023-02-18T05:06:19;25.25;;;9.07;;
66874;SDS011;53784;52.630;4.896;2023-02-18T05:08:44;24.03;;;8.70;;
66874;SDS011;53784;52.630;4.896;2023-02-18T05:11:10;26.83;;;8.65;;
66874;SDS011;53784;52.630;4.896;2023-02-18T05:13:35;26.35;;;8.40;;
66874;SDS011;53784;52.630;4.896;2023-02-18T05:16:00;24.58;;;8.77;;
66874;SDS011;53784;52.630;4.896;2023-02-18T05:18:25;26.23;;;8.90;;
66874;SDS011;53784;52.630;4.896;2023-02-18T05:20:51;20.77;;;8.10;;
66874;SDS011;53784;52.630;4.896;2023-02-18T05:23:16;20.45;;;8.75;;
66874;SDS011;53784;52.630;4.896;2023-02-18T05:25:44;22.38;;;8.32;;
66874;SDS011;53784;52.630;4.896;2023-02-18T05:28:09;21.80;;;8.20;;
66874;SDS011;53784;52.630;4.896;2023-02-18T05:30:34;25.50;;;8.18;;
66874;SDS011;53784;52.630;4.896;2023-02-18T05:32:59;19.93;;;7.40;;
66874;SDS011;53784;52.630;4.896;2023-02-18T05:35:24;18.33;;;7.30;;
66874;SDS011;53784;52.630;4.896;2023-02-18T05:37:50;21.20;;;7.47;;
66874;SDS011;53784;52.630;4.896;2023-02-18T05:40:15;20.97;;;7.50;;
66874;SDS011;53784;52.630;4.896;2023-02-18T05:42:40;21.43;;;7.67;;
66874;SDS011;53784;52.630;4.896;2023-02-18T05:45:05;20.92;;;6.97;;
66874;SDS011;53784;52.630;4.896;2023-02-18T05:47:30;21.65;;;6.95;;
66874;SDS011;53784;52.630;4.896;2023-02-18T05:49:55;22.57;;;7.00;;
66874;SDS011;53784;52.630;4.896;2023-02-18T05:52:21;19.20;;;6.70;;
66874;SDS011;53784;52.630;4.896;2023-02-18T05:54:46;18.33;;;6.17;;
66874;SDS011;53784;52.630;4.896;2023-02-18T05:57:14;19.90;;;6.20;;
66874;SDS011;53784;52.630;4.896;2023-02-18T05:59:39;21.48;;;5.63;;
66874;SDS011;53784;52.630;4.896;2023-02-18T06:02:04;19.67;;;5.65;;
66874;SDS011;53784;52.630;4.896;2023-02-18T06:04:30;21.80;;;5.60;;
66874;SDS011;53784;52.630;4.896;2023-02-18T06:06:55;19.73;;;6.00;;
66874;SDS011;53784;52.630;4.896;2023-02-18T06:09:20;18.33;;;5.40;;
66874;SDS011;53784;52.630;4.896;2023-02-18T06:11:45;15.80;;;5.50;;
66874;SDS011;53784;52.630;4.896;2023-02-18T06:14:10;16.85;;;5.90;;
66874;SDS011;53784;52.630;4.896;2023-02-18T06:16:36;18.17;;;5.37;;
66874;SDS011;53784;52.630;4.896;2023-02-18T06:19:01;20.42;;;5.25;;
66874;SDS011;53784;52.630;4.896;2023-02-18T06:21:26;21.37;;;4.73;;
66874;SDS011;53784;52.630;4.896;2023-02-18T06:23:51;19.20;;;5.20;;
66874;SDS011;53784;52.630;4.896;2023-02-18T06:26:16;19.80;;;4.70;;
66874;SDS011;53784;52.630;4.896;2023-02-18T06:28:42;17.60;;;4.80;;
66874;SDS011;53784;52.630;4.896;2023-02-18T06:31:07;19.00;;;4.73;;
66874;SDS011;53784;52.630;4.896;2023-02-18T06:33:32;18.13;;;5.53;;
66874;SDS011;53784;52.630;4.896;2023-02-18T06:36:01;19.03;;;5.67;;
66874;SDS011;53784;52.630;4.896;2023-02-18T06:38:27;18.75;;;5.53;;
66874;SDS011;53784;52.630;4.896;2023-02-18T06:40:52;16.57;;;5.33;;
66874;SDS011;53784;52.630;4.896;2023-02-18T06:43:18;15.02;;;4.85;;
66874;SDS011;53784;52.630;4.896;2023-02-18T06:45:43;20.33;;;5.40;;
66874;SDS011;53784;52.630;4.896;2023-02-18T06:48:09;19.92;;;5.50;;
66874;SDS011;53784;52.630;4.896;2023-02-18T06:50:34;19.35;;;5.57;;
66874;SDS011;53784;52.630;4.896;2023-02-18T06:52:59;17.20;;;5.50;;
66874;SDS011;53784;52.630;4.896;2023-02-18T06:55:24;18.20;;;6.60;;
66874;SDS011;53784;52.630;4.896;2023-02-18T06:57:49;20.20;;;5.80;;
66874;SDS011;53784;52.630;4.896;2023-02-18T07:00:15;18.95;;;5.28;;
66874;SDS011;53784;52.630;4.896;2023-02-18T07:02:40;16.38;;;6.05;;
66874;SDS011;53784;52.630;4.896;2023-02-18T07:05:05;17.73;;;5.47;;
66874;SDS011;53784;52.630;4.896;2023-02-18T07:07:30;16.15;;;5.95;;
66874;SDS011;53784;52.630;4.896;2023-02-18T07:09:55;22.98;;;5.72;;
66874;SDS011;53784;52.630;4.896;2023-02-18T07:12:20;19.40;;;6.10;;
66874;SDS011;53784;52.630;4.896;2023-02-18T07:14:46;18.50;;;5.63;;
66874;SDS011;53784;52.630;4.896;2023-02-18T07:17:11;20.37;;;5.80;;
66874;SDS011;53784;52.630;4.896;2023-02-18T07:19:36;18.38;;;5.43;;
66874;SDS011;53784;52.630;4.896;2023-02-18T07:22:01;20.87;;;6.57;;
66874;SDS011;53784;52.630;4.896;2023-02-18T07:24:27;15.43;;;5.17;;
66874;SDS011;53784;52.630;4.896;2023-02-18T07:26:52;19.08;;;4.93;;
66874;SDS011;53784;52.630;4.896;2023-02-18T07:29:17;19.63;;;5.00;;
66874;SDS011;53784;52.630;4.896;2023-02-18T07:31:42;13.33;;;4.50;;
66874;SDS011;53784;52.630;4.896;2023-02-18T07:34:07;13.90;;;4.38;;
66874;SDS011;53784;52.630;4.896;2023-02-18T07:36:32;14.02;;;4.35;;
66874;SDS011;53784;52.630;4.896;2023-02-18T07:38:57;19.08;;;4.43;;
66874;SDS011;53784;52.630;4.896;2023-02-18T07:41:23;23.02;;;5.20;;
66874;SDS011;53784;52.630;4.896;2023-02-18T07:43:48;15.67;;;4.27;;
66874;SDS011;53784;52.630;4.896;2023-02-18T07:46:14;18.13;;;4.30;;
66874;SDS011;53784;52.630;4.896;2023-02-18T07:48:39;20.15;;;4.95;;
66874;SDS011;53784;52.630;4.896;2023-02-18T07:51:05;14.23;;;4.05;;
66874;SDS011;53784;52.630;4.896;2023-02-18T07:53:30;17.58;;;4.57;;
66874;SDS011;53784;52.630;4.896;2023-02-18T07:55:57;15.37;;;3.80;;
66874;SDS011;53784;52.630;4.896;2023-02-18T07:58:25;17.05;;;3.95;;
66874;SDS011;53784;52.630;4.896;2023-02-18T08:00:50;17.52;;;4.47;;
66874;SDS011;53784;52.630;4.896;2023-02-18T08:03:17;14.40;;;3.78;;
66874;SDS011;53784;52.630;4.896;2023-02-18T08:05:43;13.02;;;3.47;;
66874;SDS011;53784;52.630;4.896;2023-02-18T08:08:19;17.70;;;3.45;;
66874;SDS011;53784;52.630;4.896;2023-02-18T08:10:44;16.33;;;3.20;;
66874;SDS011;53784;52.630;4.896;2023-02-18T08:13:09;15.63;;;3.00;;
66874;SDS011;53784;52.630;4.896;2023-02-18T08:15:35;16.27;;;2.70;;
66874;SDS011;53784;52.630;4.896;2023-02-18T08:18:00;19.55;;;2.80;;
66874;SDS011;53784;52.630;4.896;2023-02-18T08:20:25;11.13;;;2.33;;
66874;SDS011;53784;52.630;4.896;2023-02-18T08:22:51;16.15;;;2.35;;
66874;SDS011;53784;52.630;4.896;2023-02-18T08:25:16;15.85;;;2.40;;
66874;SDS011;53784;52.630;4.896;2023-02-18T08:27:41;23.37;;;2.80;;
66874;SDS011;53784;52.630;4.896;2023-02-18T08:30:06;12.55;;;2.10;;
66874;SDS011;53784;52.630;4.896;2023-02-18T08:32:32;13.38;;;2.53;;
66874;SDS011;53784;52.630;4.896;2023-02-18T08:34:57;12.97;;;2.27;;
66874;SDS011;53784;52.630;4.896;2023-02-18T08:37:22;14.20;;;2.30;;
66874;SDS011;53784;52.630;4.896;2023-02-18T08:39:48;14.82;;;2.20;;
66874;SDS011;53784;52.630;4.896;2023-02-18T08:42:13;14.32;;;2.10;;
66874;SDS011;53784;52.630;4.896;2023-02-18T08:44:38;18.90;;;2.27;;
66874;SDS011;53784;52.630;4.896;2023-02-18T08:47:03;15.00;;;2.30;;
66874;SDS011;53784;52.630;4.896;2023-02-18T08:49:28;14.05;;;1.90;;
66874;SDS011;53784;52.630;4.896;2023-02-18T08:51:54;11.37;;;1.80;;
66874;SDS011;53784;52.630;4.896;2023-02-18T08:54:19;14.83;;;1.90;;
66874;SDS011;53784;52.630;4.896;2023-02-18T08:56:44;15.48;;;2.13;;
66874;SDS011;53784;52.630;4.896;2023-02-18T08:59:09;12.48;;;1.83;;
66874;SDS011;53784;52.630;4.896;2023-02-18T09:01:35;18.20;;;2.30;;
66874;SDS011;53784;52.630;4.896;2023-02-18T09:04:00;13.65;;;2.25;;
66874;SDS011;53784;52.630;4.896;2023-02-18T09:06:25;11.37;;;1.80;;
66874;SDS011;53784;52.630;4.896;2023-02-18T09:08:50;12.35;;;1.70;;
66874;SDS011;53784;52.630;4.896;2023-02-18T09:11:16;12.27;;;2.22;;
66874;SDS011;53784;52.630;4.896;2023-02-18T09:13:42;14.32;;;1.77;;
66874;SDS011;53784;52.630;4.896;2023-02-18T09:16:09;11.60;;;2.10;;
66874;SDS011;53784;52.630;4.896;2023-02-18T09:18:35;15.57;;;2.13;;
66874;SDS011;53784;52.630;4.896;2023-02-18T09:21:00;14.52;;;2.25;;
66874;SDS011;53784;52.630;4.896;2023-02-18T09:23:26;12.73;;;2.13;;
66874;SDS011;53784;52.630;4.896;2023-02-18T09:25:52;15.43;;;1.80;;
66874;SDS011;53784;52.630;4.896;2023-02-18T09:28:17;14.50;;;2.08;;
66874;SDS011;53784;52.630;4.896;2023-02-18T09:30:42;12.63;;;2.37;;
66874;SDS011;53784;52.630;4.896;2023-02-18T09:33:07;11.43;;;2.00;;
66874;SDS011;53784;52.630;4.896;2023-02-18T09:35:33;10.60;;;1.77;;
66874;SDS011;53784;52.630;4.896;2023-02-18T09:38:02;10.35;;;1.90;;
66874;SDS011;53784;52.630;4.896;2023-02-18T09:40:28;16.38;;;2.63;;
66874;SDS011;53784;52.630;4.896;2023-02-18T09:42:55;15.05;;;2.30;;
66874;SDS011;53784;52.630;4.896;2023-02-18T09:45:21;15.85;;;2.10;;
66874;SDS011;53784;52.630;4.896;2023-02-18T09:47:46;14.82;;;2.33;;
66874;SDS011;53784;52.630;4.896;2023-02-18T09:50:13;12.57;;;2.10;;
66874;SDS011;53784;52.630;4.896;2023-02-18T09:52:41;12.63;;;1.70;;
66874;SDS011;53784;52.630;4.896;2023-02-18T09:58:00;13.32;;;2.00;;
66874;SDS011;53784;52.630;4.896;2023-02-18T10:00:31;14.23;;;2.47;;
66874;SDS011;53784;52.630;4.896;2023-02-18T10:02:58;12.70;;;2.22;;
66874;SDS011;53784;52.630;4.896;2023-02-18T10:05:25;13.75;;;2.00;;
66874;SDS011;53784;52.630;4.896;2023-02-18T10:07:52;13.43;;;2.03;;
66874;SDS011;53784;52.630;4.896;2023-02-18T10:10:33;14.25;;;2.17;;
66874;SDS011;53784;52.630;4.896;2023-02-18T10:13:00;15.70;;;2.60;;
66874;SDS011;53784;52.630;4.896;2023-02-18T10:15:27;18.25;;;2.25;;
66874;SDS011;53784;52.630;4.896;2023-02-18T10:17:53;15.23;;;2.13;;
66874;SDS011;53784;52.630;4.896;2023-02-18T10:20:20;14.98;;;2.17;;
66874;SDS011;53784;52.630;4.896;2023-02-18T10:22:47;18.88;;;2.17;;
66874;SDS011;53784;52.630;4.896;2023-02-18T10:25:16;12.10;;;1.80;;
66874;SDS011;53784;52.630;4.896;2023-02-18T10:27:42;10.80;;;1.90;;
66874;SDS011;53784;52.630;4.896;2023-02-18T10:45:41;11.25;;;1.90;;
66874;SDS011;53784;52.630;4.896;2023-02-18T10:50:46;12.80;;;1.85;;
66874;SDS011;53784;52.630;4.896;2023-02-18T10:53:16;12.05;;;2.17;;
66874;SDS011;53784;52.630;4.896;2023-02-18T10:55:44;11.18;;;2.03;;
66874;SDS011;53784;52.630;4.896;2023-02-18T10:58:23;14.27;;;2.20;;
66874;SDS011;53784;52.630;4.896;2023-02-18T11:00:48;12.32;;;2.38;;
66874;SDS011;53784;52.630;4.896;2023-02-18T11:05:39;11.15;;;2.40;;
66874;SDS011;53784;52.630;4.896;2023-02-18T11:08:06;14.40;;;2.28;;
66874;SDS011;53784;52.630;4.896;2023-02-18T11:10:32;14.73;;;2.10;;
66874;SDS011;53784;52.630;4.896;2023-02-18T11:13:00;12.20;;;2.22;;
66874;SDS011;53784;52.630;4.896;2023-02-18T11:15:26;13.68;;;2.28;;
66874;SDS011;53784;52.630;4.896;2023-02-18T11:17:52;12.45;;;1.90;;
66874;SDS011;53784;52.630;4.896;2023-02-18T11:22:58;12.18;;;2.15;;
66874;SDS011;53784;52.630;4.896;2023-02-18T11:25:25;11.80;;;2.20;;
66874;SDS011;53784;52.630;4.896;2023-02-18T11:27:57;13.00;;;2.30;;
66874;SDS011;53784;52.630;4.896;2023-02-18T11:30:29;11.80;;;2.40;;
66874;SDS011;53784;52.630;4.896;2023-02-18T11:32:58;12.07;;;2.20;;
66874;SDS011;53784;52.630;4.896;2023-02-18T11:35:26;13.27;;;2.35;;
66874;SDS011;53784;52.630;4.896;2023-02-18T11:37:51;13.98;;;2.50;;
66874;SDS011;53784;52.630;4.896;2023-02-18T11:40:21;12.32;;;2.25;;
66874;SDS011;53784;52.630;4.896;2023-02-18T11:42:47;12.45;;;2.03;;
66874;SDS011;53784;52.630;4.896;2023-02-18T11:45:25;10.27;;;1.87;;
66874;SDS011;53784;52.630;4.896;2023-02-18T11:47:57;14.90;;;2.42;;
66874;SDS011;53784;52.630;4.896;2023-02-18T11:50:23;11.25;;;2.10;;
66874;SDS011;53784;52.630;4.896;2023-02-18T11:52:48;11.13;;;2.00;;
66874;SDS011;53784;52.630;4.896;2023-02-18T11:57:40;12.90;;;2.25;;
66874;SDS011;53784;52.630;4.896;2023-02-18T12:00:19;16.63;;;2.40;;
66874;SDS011;53784;52.630;4.896;2023-02-18T12:02:45;12.60;;;2.38;;
66874;SDS011;53784;52.630;4.896;2023-02-18T12:05:18;11.02;;;2.08;;
66874;SDS011;53784;52.630;4.896;2023-02-18T12:07:47;9.55;;;2.25;;
66874;SDS011;53784;52.630;4.896;2023-02-18T12:12:49;11.93;;;2.40;;
66874;SDS011;53784;52.630;4.896;2023-02-18T12:15:21;12.40;;;2.00;;
66874;SDS011;53784;52.630;4.896;2023-02-18T12:18:01;12.83;;;2.30;;
66874;SDS011;53784;52.630;4.896;2023-02-18T12:35:51;14.60;;;2.30;;
66874;SDS011;53784;52.630;4.896;2023-02-18T12:51:18;10.32;;;2.35;;
66874;SDS011;53784;52.630;4.896;2023-02-18T13:01:25;12.90;;;2.37;;
66874;SDS011;53784;52.630;4.896;2023-02-18T13:06:29;11.02;;;2.30;;
66874;SDS011;53784;52.630;4.896;2023-02-18T13:11:48;11.88;;;2.15;;
66874;SDS011;53784;52.630;4.896;2023-02-18T13:14:21;12.00;;;2.53;;
66874;SDS011;53784;52.630;4.896;2023-02-18T13:21:44;12.07;;;2.38;;
66874;SDS011;53784;52.630;4.896;2023-02-18T13:24:11;12.95;;;2.40;;
66874;SDS011;53784;52.630;4.896;2023-02-18T13:26:37;12.00;;;2.30;;
66874;SDS011;53784;52.630;4.896;2023-02-18T13:31:41;11.15;;;2.40;;
66874;SDS011;53784;52.630;4.896;2023-02-18T13:36:39;10.90;;;2.40;;
66874;SDS011;53784;52.630;4.896;2023-02-18T13:39:09;11.27;;;2.67;;
66874;SDS011;53784;52.630;4.896;2023-02-18T13:41:37;13.48;;;2.50;;
66874;SDS011;53784;52.630;4.896;2023-02-18T13:44:38;10.48;;;2.38;;
66874;SDS011;53784;52.630;4.896;2023-02-18T13:46:55;10.50;;;2.47;;
66874;SDS011;53784;52.630;4.896;2023-02-18T13:49:24;10.57;;;2.38;;
66874;SDS011;53784;52.630;4.896;2023-02-18T13:51:50;14.27;;;2.80;;
66874;SDS011;53784;52.630;4.896;2023-02-18T13:56:57;18.98;;;6.10;;
66874;SDS011;53784;52.630;4.896;2023-02-18T14:01:54;14.52;;;2.55;;
66874;SDS011;53784;52.630;4.896;2023-02-18T14:04:35;12.75;;;2.40;;
66874;SDS011;53784;52.630;4.896;2023-02-18T14:07:18;12.55;;;2.20;;
66874;SDS011;53784;52.630;4.896;2023-02-18T14:09:47;12.38;;;2.38;;
66874;SDS011;53784;52.630;4.896;2023-02-18T14:14:52;12.63;;;2.05;;
66874;SDS011;53784;52.630;4.896;2023-02-18T14:22:45;12.43;;;2.10;;
66874;SDS011;53784;52.630;4.896;2023-02-18T14:25:16;11.32;;;2.25;;
66874;SDS011;53784;52.630;4.896;2023-02-18T14:27:46;12.20;;;2.20;;
66874;SDS011;53784;52.630;4.896;2023-02-18T14:30:18;11.60;;;2.20;;
66874;SDS011;53784;52.630;4.896;2023-02-18T14:32:44;10.77;;;2.00;;
66874;SDS011;53784;52.630;4.896;2023-02-18T14:49:59;13.45;;;2.45;;
66874;SDS011;53784;52.630;4.896;2023-02-18T14:54:52;10.23;;;1.92;;
66874;SDS011;53784;52.630;4.896;2023-02-18T14:57:17;11.20;;;2.20;;
66874;SDS011;53784;52.630;4.896;2023-02-18T14:59:45;17.67;;;2.63;;
66874;SDS011;53784;52.630;4.896;2023-02-18T15:02:16;18.23;;;2.97;;
66874;SDS011;53784;52.630;4.896;2023-02-18T15:07:14;15.57;;;2.25;;
66874;SDS011;53784;52.630;4.896;2023-02-18T15:09:46;11.98;;;2.28;;
66874;SDS011;53784;52.630;4.896;2023-02-18T15:12:13;10.63;;;2.20;;
66874;SDS011;53784;52.630;4.896;2023-02-18T15:14:40;14.85;;;2.78;;
66874;SDS011;53784;52.630;4.896;2023-02-18T15:17:06;12.82;;;2.35;;
66874;SDS011;53784;52.630;4.896;2023-02-18T15:19:42;13.77;;;2.60;;
66874;SDS011;53784;52.630;4.896;2023-02-18T15:22:14;14.85;;;3.08;;
66874;SDS011;53784;52.630;4.896;2023-02-18T15:24:41;14.80;;;3.03;;
66874;SDS011;53784;52.630;4.896;2023-02-18T15:27:10;15.20;;;2.92;;
66874;SDS011;53784;52.630;4.896;2023-02-18T15:29:36;12.05;;;2.53;;
66874;SDS011;53784;52.630;4.896;2023-02-18T15:32:07;17.13;;;2.80;;
66874;SDS011;53784;52.630;4.896;2023-02-18T15:34:38;15.38;;;2.45;;
66874;SDS011;53784;52.630;4.896;2023-02-18T15:37:05;13.38;;;2.67;;
66874;SDS011;53784;52.630;4.896;2023-02-18T15:39:30;12.75;;;2.63;;
66874;SDS011;53784;52.630;4.896;2023-02-18T15:41:58;15.40;;;2.90;;
66874;SDS011;53784;52.630;4.896;2023-02-18T15:44:25;15.20;;;3.13;;
66874;SDS011;53784;52.630;4.896;2023-02-18T15:46:51;15.30;;;2.80;;
66874;SDS011;53784;52.630;4.896;2023-02-18T15:49:18;15.25;;;3.33;;
66874;SDS011;53784;52.630;4.896;2023-02-18T15:51:44;13.10;;;3.13;;
66874;SDS011;53784;52.630;4.896;2023-02-18T15:54:16;15.35;;;3.28;;
66874;SDS011;53784;52.630;4.896;2023-02-18T15:56:43;14.55;;;3.15;;
66874;SDS011;53784;52.630;4.896;2023-02-18T15:59:19;13.23;;;3.15;;
66874;SDS011;53784;52.630;4.896;2023-02-18T16:04:44;10.57;;;2.60;;
66874;SDS011;53784;52.630;4.896;2023-02-18T16:07:23;10.15;;;2.75;;
66874;SDS011;53784;52.630;4.896;2023-02-18T16:09:49;16.13;;;3.28;;
66874;SDS011;53784;52.630;4.896;2023-02-18T16:12:25;12.18;;;2.85;;
66874;SDS011;53784;52.630;4.896;2023-02-18T16:14:52;14.63;;;2.88;;
66874;SDS011;53784;52.630;4.896;2023-02-18T16:17:19;14.77;;;3.22;;
66874;SDS011;53784;52.630;4.896;2023-02-18T16:22:49;16.38;;;4.45;;
66874;SDS011;53784;52.630;4.896;2023-02-18T16:25:16;18.77;;;5.70;;
66874;SDS011;53784;52.630;4.896;2023-02-18T16:32:40;14.07;;;3.28;;
66874;SDS011;53784;52.630;4.896;2023-02-18T16:35:06;14.23;;;3.10;;
66874;SDS011;53784;52.630;4.896;2023-02-18T16:37:31;12.02;;;2.80;;
66874;SDS011;53784;52.630;4.896;2023-02-18T16:42:49;12.13;;;3.10;;
66874;SDS011;53784;52.630;4.896;2023-02-18T16:45:15;18.08;;;3.47;;
66874;SDS011;53784;52.630;4.896;2023-02-18T16:47:41;17.27;;;2.97;;
66874;SDS011;53784;52.630;4.896;2023-02-18T16:50:15;11.27;;;3.53;;
66874;SDS011;53784;52.630;4.896;2023-02-18T16:52:41;19.50;;;3.58;;
66874;SDS011;53784;52.630;4.896;2023-02-18T16:55:20;17.67;;;3.10;;
66874;SDS011;53784;52.630;4.896;2023-02-18T16:57:45;14.27;;;3.22;;
66874;SDS011;53784;52.630;4.896;2023-02-18T17:00:11;14.52;;;3.45;;
66874;SDS011;53784;52.630;4.896;2023-02-18T17:02:37;15.20;;;3.58;;
66874;SDS011;53784;52.630;4.896;2023-02-18T17:05:02;16.58;;;3.60;;
66874;SDS011;53784;52.630;4.896;2023-02-18T17:07:27;12.17;;;2.67;;
66874;SDS011;53784;52.630;4.896;2023-02-18T17:09:53;11.18;;;3.20;;
66874;SDS011;53784;52.630;4.896;2023-02-18T17:12:18;17.65;;;3.50;;
66874;SDS011;53784;52.630;4.896;2023-02-18T17:14:44;12.38;;;3.50;;
66874;SDS011;53784;52.630;4.896;2023-02-18T17:17:11;12.98;;;3.50;;